Time;durP1;ratioP1;P1;durP2;ratioP2;P2;SDS_P1;SDS_P2;PMS_P1;PMS_P2;Temp;Humidity;BMP_temperature;BMP_pressure;BME280_temperature;BME280_humidity;BME280_pressure;Samples;Min_cycle;Max_cycle;Signal;HPM_P1;HPM_P2
2023/12/24 00:00:05;;;;;;;3.90;2.42;;;;;;;;;;5051910;28;20043;-54
2023/12/24 00:02:30;;;;;;;4.72;2.60;;;;;;;;;;5052454;28;20043;-55
2023/12/24 00:04:55;;;;;;;5.47;3.10;;;;;;;;;;5051292;28;20036;-55
2023/12/24 00:07:20;;;;;;;3.88;2.40;;;;;;;;;;5053759;28;20241;-54
2023/12/24 00:09:46;;;;;;;8.30;3.15;;;;;;;;;;5019886;28;20368;-51
2023/12/24 00:12:11;;;;;;;4.07;2.40;;;;;;;;;;5059606;28;20544;-55
2023/12/24 00:14:37;;;;;;;4.07;2.85;;;;;;;;;;5038100;28;20033;-51
2023/12/24 00:17:02;;;;;;;4.18;3.00;;;;;;;;;;5052911;28;20471;-56
2023/12/24 00:19:27;;;;;;;4.45;2.78;;;;;;;;;;5051388;28;20041;-53
2023/12/24 00:21:53;;;;;;;4.15;2.65;;;;;;;;;;5060566;28;20442;-52
2023/12/24 00:24:18;;;;;;;2.47;1.95;;;;;;;;;;5051186;28;20727;-53
2023/12/24 00:26:43;;;;;;;5.38;2.70;;;;;;;;;;5054327;28;20023;-54
2023/12/24 00:29:08;;;;;;;3.85;2.05;;;;;;;;;;5050866;28;20117;-53
2023/12/24 00:31:34;;;;;;;3.63;2.03;;;;;;;;;;5054015;28;20027;-54
2023/12/24 00:33:59;;;;;;;3.10;1.83;;;;;;;;;;5052415;28;20531;-53
2023/12/24 00:36:24;;;;;;;2.17;1.75;;;;;;;;;;5054194;28;20047;-54
2023/12/24 00:38:50;;;;;;;1.88;1.30;;;;;;;;;;5059653;28;20043;-51
2023/12/24 00:41:16;;;;;;;2.30;1.48;;;;;;;;;;5050695;28;20449;-54
2023/12/24 00:43:42;;;;;;;2.00;1.58;;;;;;;;;;5052582;28;20037;-53
2023/12/24 00:46:07;;;;;;;2.75;1.70;;;;;;;;;;5058630;28;20510;-51
2023/12/24 00:48:32;;;;;;;3.75;2.25;;;;;;;;;;5053703;28;20054;-55
2023/12/24 00:50:57;;;;;;;4.38;1.98;;;;;;;;;;5051546;28;20028;-52
2023/12/24 00:53:22;;;;;;;2.17;1.58;;;;;;;;;;5058815;28;20727;-51
2023/12/24 00:55:48;;;;;;;2.70;1.73;;;;;;;;;;5051770;28;20130;-50
2023/12/24 00:58:14;;;;;;;1.75;1.38;;;;;;;;;;5053061;28;20500;-51
2023/12/24 01:00:40;;;;;;;1.58;1.48;;;;;;;;;;5050804;28;20741;-54
2023/12/24 01:03:05;;;;;;;1.88;1.42;;;;;;;;;;5053712;28;20035;-52
2023/12/24 01:05:30;;;;;;;3.67;1.50;;;;;;;;;;5049981;28;20388;-51
2023/12/24 01:07:56;;;;;;;1.90;1.30;;;;;;;;;;5051448;28;20565;-52
2023/12/24 01:10:21;;;;;;;3.45;2.03;;;;;;;;;;5050991;28;20028;-55
2023/12/24 01:12:46;;;;;;;1.55;1.45;;;;;;;;;;5052526;28;20939;-52
2023/12/24 01:15:12;;;;;;;2.58;1.80;;;;;;;;;;5051454;28;20566;-56
2023/12/24 01:17:37;;;;;;;3.53;1.63;;;;;;;;;;5052926;28;20126;-53
2023/12/24 01:20:11;;;;;;;2.55;1.60;;;;;;;;;;5050697;28;20122;-56
2023/12/24 01:22:36;;;;;;;2.08;1.63;;;;;;;;;;5059450;28;20035;-55
2023/12/24 01:25:02;;;;;;;3.35;1.50;;;;;;;;;;5049283;28;20024;-54
2023/12/24 01:27:27;;;;;;;3.15;1.80;;;;;;;;;;5051540;28;20035;-55
2023/12/24 01:29:52;;;;;;;4.90;1.67;;;;;;;;;;5051293;28;20031;-56
2023/12/24 01:32:18;;;;;;;2.88;1.67;;;;;;;;;;5053935;28;21107;-57
2023/12/24 01:34:43;;;;;;;2.33;1.50;;;;;;;;;;5049795;28;20911;-52
2023/12/24 01:37:08;;;;;;;2.60;1.73;;;;;;;;;;5052546;28;20044;-54
2023/12/24 01:39:33;;;;;;;3.25;2.00;;;;;;;;;;5049987;28;20044;-53
2023/12/24 01:41:59;;;;;;;4.32;2.15;;;;;;;;;;4995687;28;21784;-55
2023/12/24 01:44:24;;;;;;;3.92;2.03;;;;;;;;;;4994114;28;20419;-56
2023/12/24 01:46:49;;;;;;;3.58;2.20;;;;;;;;;;5004752;28;20072;-51
2023/12/24 01:49:15;;;;;;;3.13;1.80;;;;;;;;;;4994151;28;20459;-55
2023/12/24 01:51:40;;;;;;;2.22;1.58;;;;;;;;;;4996557;28;20029;-55
2023/12/24 01:54:06;;;;;;;2.72;1.60;;;;;;;;;;4994421;28;20029;-52
2023/12/24 01:56:32;;;;;;;2.85;1.40;;;;;;;;;;4996379;28;20048;-56
2023/12/24 01:58:57;;;;;;;1.90;1.23;;;;;;;;;;4993567;28;21932;-56
2023/12/24 02:01:23;;;;;;;1.88;1.65;;;;;;;;;;4996835;28;20056;-52
2023/12/24 02:03:48;;;;;;;3.58;1.50;;;;;;;;;;4994627;28;21863;-56
2023/12/24 02:06:14;;;;;;;2.35;1.98;;;;;;;;;;4994117;28;20018;-55
2023/12/24 02:08:39;;;;;;;2.72;1.70;;;;;;;;;;4995456;28;20053;-57
2023/12/24 02:11:05;;;;;;;3.67;1.67;;;;;;;;;;4994295;28;20036;-54
2023/12/24 02:13:31;;;;;;;2.92;1.73;;;;;;;;;;5034693;28;20043;-54
2023/12/24 02:15:57;;;;;;;4.53;1.90;;;;;;;;;;5050138;28;20468;-53
2023/12/24 02:18:22;;;;;;;2.90;1.90;;;;;;;;;;5052184;28;20032;-54
2023/12/24 02:20:48;;;;;;;2.58;1.80;;;;;;;;;;5049321;28;20678;-56
2023/12/24 02:23:13;;;;;;;3.63;2.30;;;;;;;;;;5063497;28;20029;-56
2023/12/24 02:25:38;;;;;;;4.20;2.25;;;;;;;;;;5053533;28;20120;-54
2023/12/24 02:28:10;;;;;;;4.63;2.28;;;;;;;;;;5050862;28;20490;-55
2023/12/24 02:30:58;;;;;;;5.38;2.42;;;;;;;;;;5050134;28;20066;-55
2023/12/24 02:33:24;;;;;;;4.53;2.50;;;;;;;;;;4964561;28;20796;-56
2023/12/24 02:35:50;;;;;;;9.35;3.83;;;;;;;;;;4975723;28;20524;-51
2023/12/24 02:38:15;;;;;;;8.10;3.67;;;;;;;;;;4976508;28;20158;-54
2023/12/24 02:40:40;;;;;;;7.65;3.22;;;;;;;;;;4974180;28;20026;-55
2023/12/24 02:43:08;;;;;;;4.80;2.72;;;;;;;;;;4966754;28;20099;-53
2023/12/24 02:45:33;;;;;;;5.50;2.13;;;;;;;;;;4976839;28;20393;-55
2023/12/24 02:47:58;;;;;;;3.67;2.15;;;;;;;;;;4977814;28;20086;-54
2023/12/24 02:50:24;;;;;;;3.45;2.03;;;;;;;;;;4976363;28;20298;-56
2023/12/24 02:52:49;;;;;;;4.88;2.22;;;;;;;;;;4979215;28;20436;-55
2023/12/24 02:55:14;;;;;;;2.33;1.95;;;;;;;;;;4979013;28;20038;-55
2023/12/24 02:57:39;;;;;;;2.22;1.88;;;;;;;;;;4979453;28;20741;-56
2023/12/24 03:00:08;;;;;;;4.47;2.05;;;;;;;;;;4978122;28;20401;-52
2023/12/24 03:02:33;;;;;;;2.70;2.30;;;;;;;;;;4980902;28;20054;-55
2023/12/24 03:04:59;;;;;;;4.35;2.92;;;;;;;;;;4978722;28;20128;-52
2023/12/24 03:07:24;;;;;;;4.97;3.45;;;;;;;;;;4980541;28;20443;-52
2023/12/24 03:09:49;;;;;;;7.60;3.85;;;;;;;;;;4996197;28;20147;-51
2023/12/24 03:12:14;;;;;;;7.88;3.72;;;;;;;;;;5055767;28;20036;-56
2023/12/24 03:14:40;;;;;;;5.50;3.70;;;;;;;;;;5054860;28;20051;-54
2023/12/24 03:17:05;;;;;;;6.32;3.70;;;;;;;;;;5053823;28;20028;-53
2023/12/24 03:19:32;;;;;;;5.30;3.65;;;;;;;;;;5051577;28;21891;-52
2023/12/24 03:21:57;;;;;;;6.30;3.50;;;;;;;;;;5069066;28;20649;-55
2023/12/24 03:24:23;;;;;;;7.43;3.90;;;;;;;;;;5019046;28;20028;-51
2023/12/24 03:26:48;;;;;;;5.70;3.97;;;;;;;;;;5054274;28;20734;-52
2023/12/24 03:29:13;;;;;;;9.38;3.72;;;;;;;;;;5054480;28;20036;-55
2023/12/24 03:31:38;;;;;;;7.40;4.47;;;;;;;;;;5054730;28;20051;-55
2023/12/24 03:34:04;;;;;;;7.72;3.53;;;;;;;;;;5052902;28;20493;-54
2023/12/24 03:36:29;;;;;;;6.70;3.33;;;;;;;;;;5054262;28;20195;-55
2023/12/24 03:38:54;;;;;;;5.03;3.30;;;;;;;;;;5037304;28;20036;-56
2023/12/24 03:41:20;;;;;;;5.78;3.85;;;;;;;;;;5055915;28;20115;-55
2023/12/24 03:43:45;;;;;;;6.50;4.10;;;;;;;;;;5053017;28;20040;-54
2023/12/24 03:46:10;;;;;;;6.57;4.00;;;;;;;;;;5057788;28;20060;-54
2023/12/24 03:48:36;;;;;;;8.55;3.45;;;;;;;;;;5054448;28;20112;-54
2023/12/24 03:51:01;;;;;;;5.50;3.38;;;;;;;;;;5052457;28;20042;-55
2023/12/24 03:53:27;;;;;;;6.47;3.40;;;;;;;;;;5053385;28;22201;-55
2023/12/24 03:55:53;;;;;;;5.53;3.38;;;;;;;;;;5011545;28;20447;-53
2023/12/24 03:58:18;;;;;;;6.03;3.80;;;;;;;;;;5053203;28;20040;-55
2023/12/24 04:00:43;;;;;;;5.10;4.03;;;;;;;;;;5051567;28;20104;-53
2023/12/24 04:03:09;;;;;;;5.13;3.70;;;;;;;;;;5034167;28;20271;-56
2023/12/24 04:05:34;;;;;;;6.53;4.03;;;;;;;;;;5052610;28;20056;-56
2023/12/24 04:07:59;;;;;;;6.32;3.92;;;;;;;;;;5052424;28;20032;-53
2023/12/24 04:10:24;;;;;;;6.43;3.83;;;;;;;;;;5051442;28;20025;-56
2023/12/24 04:12:50;;;;;;;6.40;3.40;;;;;;;;;;5052287;28;20507;-52
2023/12/24 04:15:15;;;;;;;5.50;3.20;;;;;;;;;;5052889;28;20037;-56
2023/12/24 04:17:40;;;;;;;5.13;3.33;;;;;;;;;;5052229;28;20042;-54
2023/12/24 04:20:06;;;;;;;6.53;3.78;;;;;;;;;;5051588;28;20051;-54
2023/12/24 04:22:31;;;;;;;6.20;3.80;;;;;;;;;;5061942;28;20495;-55
2023/12/24 04:24:57;;;;;;;4.38;3.50;;;;;;;;;;5053680;28;20055;-53
2023/12/24 04:27:22;;;;;;;6.18;3.47;;;;;;;;;;5052445;28;20035;-50
2023/12/24 04:29:47;;;;;;;8.82;4.20;;;;;;;;;;5052780;28;20501;-54
2023/12/24 04:32:13;;;;;;;5.38;3.60;;;;;;;;;;5052289;28;20511;-51
2023/12/24 04:34:38;;;;;;;6.63;3.67;;;;;;;;;;5050550;28;20525;-55
2023/12/24 04:37:04;;;;;;;5.40;3.30;;;;;;;;;;5057031;28;20035;-55
2023/12/24 04:39:29;;;;;;;6.07;3.60;;;;;;;;;;5049388;28;20556;-57
2023/12/24 04:41:54;;;;;;;5.47;3.80;;;;;;;;;;5053043;28;20482;-55
2023/12/24 04:44:19;;;;;;;4.63;3.38;;;;;;;;;;5054450;28;20791;-57
2023/12/24 04:46:46;;;;;;;4.35;3.47;;;;;;;;;;5059057;28;20053;-55
2023/12/24 04:49:11;;;;;;;5.28;3.25;;;;;;;;;;5051744;28;20059;-56
2023/12/24 04:51:36;;;;;;;4.90;3.53;;;;;;;;;;5052436;28;20474;-53
2023/12/24 04:54:02;;;;;;;6.90;3.67;;;;;;;;;;5050668;28;20028;-52
2023/12/24 04:56:27;;;;;;;4.80;3.45;;;;;;;;;;5051512;28;20032;-55
2023/12/24 04:58:53;;;;;;;5.72;3.85;;;;;;;;;;5052186;28;20263;-55
2023/12/24 05:01:18;;;;;;;7.28;3.60;;;;;;;;;;5051699;28;20385;-54
2023/12/24 05:03:44;;;;;;;6.88;4.07;;;;;;;;;;5052377;28;20032;-53
2023/12/24 05:06:09;;;;;;;5.70;3.35;;;;;;;;;;5050996;28;21788;-54
2023/12/24 05:08:34;;;;;;;8.07;3.63;;;;;;;;;;5052097;28;20034;-56
2023/12/24 05:11:06;;;;;;;7.70;4.32;;;;;;;;;;5050401;28;20027;-54
2023/12/24 05:13:31;;;;;;;4.97;3.53;;;;;;;;;;5053114;28;20185;-55
2023/12/24 05:15:57;;;;;;;5.50;3.58;;;;;;;;;;5049794;28;20489;-50
2023/12/24 05:18:22;;;;;;;6.05;3.80;;;;;;;;;;5053915;28;20064;-55
2023/12/24 05:20:47;;;;;;;8.55;4.10;;;;;;;;;;5064066;28;20012;-54
2023/12/24 05:23:13;;;;;;;6.45;3.90;;;;;;;;;;5052013;28;20047;-51
2023/12/24 05:25:38;;;;;;;5.25;3.58;;;;;;;;;;5033950;28;20761;-50
2023/12/24 05:28:03;;;;;;;8.48;4.38;;;;;;;;;;5053082;28;20043;-53
2023/12/24 05:30:28;;;;;;;6.55;3.95;;;;;;;;;;5049527;28;20887;-51
2023/12/24 05:32:54;;;;;;;8.68;4.22;;;;;;;;;;5019282;28;20558;-53
2023/12/24 05:35:19;;;;;;;8.45;4.70;;;;;;;;;;5051601;28;20021;-54
2023/12/24 05:37:46;;;;;;;8.93;4.53;;;;;;;;;;5038037;28;20036;-53
2023/12/24 05:40:11;;;;;;;7.15;4.18;;;;;;;;;;5049422;28;20089;-50
2023/12/24 05:42:37;;;;;;;6.18;3.90;;;;;;;;;;5053127;28;20561;-51
2023/12/24 05:45:03;;;;;;;6.07;4.07;;;;;;;;;;5053186;28;20028;-52
2023/12/24 05:47:28;;;;;;;10.32;5.35;;;;;;;;;;5057368;28;20367;-53
2023/12/24 05:49:53;;;;;;;9.52;4.90;;;;;;;;;;5051588;28;20394;-55
2023/12/24 05:52:18;;;;;;;6.63;4.18;;;;;;;;;;5053419;28;20034;-53
2023/12/24 05:54:44;;;;;;;8.95;4.90;;;;;;;;;;4996068;28;20075;-54
2023/12/24 05:57:09;;;;;;;10.82;5.60;;;;;;;;;;5051276;28;20518;-54
2023/12/24 05:59:34;;;;;;;8.52;4.88;;;;;;;;;;5050441;28;20089;-52
2023/12/24 06:01:59;;;;;;;12.55;6.30;;;;;;;;;;5052565;28;20687;-53
2023/12/24 06:04:25;;;;;;;12.82;5.75;;;;;;;;;;5023367;28;20195;-52
2023/12/24 06:06:50;;;;;;;10.27;5.35;;;;;;;;;;5051442;28;20454;-54
2023/12/24 06:09:15;;;;;;;8.50;5.35;;;;;;;;;;5048794;28;20039;-53
2023/12/24 06:11:41;;;;;;;9.20;5.63;;;;;;;;;;5051072;28;20017;-55
2023/12/24 06:14:06;;;;;;;9.80;6.05;;;;;;;;;;5052657;28;20020;-55
2023/12/24 06:16:31;;;;;;;11.60;5.85;;;;;;;;;;5050934;28;20032;-55
2023/12/24 06:18:56;;;;;;;9.38;4.93;;;;;;;;;;5050157;28;22201;-54
2023/12/24 06:21:22;;;;;;;12.40;5.32;;;;;;;;;;5059466;28;20021;-51
2023/12/24 06:23:47;;;;;;;8.48;4.90;;;;;;;;;;5048747;28;20953;-52
2023/12/24 06:26:12;;;;;;;11.23;5.10;;;;;;;;;;5050090;28;20115;-53
2023/12/24 06:28:37;;;;;;;10.35;5.75;;;;;;;;;;5038229;28;21785;-52
2023/12/24 06:31:03;;;;;;;5.85;3.63;;;;;;;;;;5018908;28;20040;-54
2023/12/24 06:33:28;;;;;;;15.80;7.10;;;;;;;;;;5056112;28;20040;-54
2023/12/24 06:35:53;;;;;;;13.00;6.70;;;;;;;;;;5055118;28;20026;-54
2023/12/24 06:38:18;;;;;;;7.47;4.22;;;;;;;;;;5059760;28;20354;-53
2023/12/24 06:40:44;;;;;;;22.42;10.48;;;;;;;;;;5052719;28;20031;-53
2023/12/24 06:43:09;;;;;;;16.73;7.63;;;;;;;;;;5054632;28;20617;-55
2023/12/24 06:45:34;;;;;;;9.00;4.72;;;;;;;;;;5056478;28;20020;-53
2023/12/24 06:48:02;;;;;;;5.60;2.72;;;;;;;;;;5055174;28;20778;-54
2023/12/24 06:50:28;;;;;;;6.95;3.42;;;;;;;;;;5051912;28;20144;-54
2023/12/24 06:52:53;;;;;;;6.53;3.35;;;;;;;;;;5056881;28;20020;-54
2023/12/24 06:55:18;;;;;;;6.70;3.63;;;;;;;;;;5053267;28;20105;-55
2023/12/24 06:57:43;;;;;;;7.97;3.67;;;;;;;;;;5056727;28;20024;-53
2023/12/24 07:00:09;;;;;;;8.88;4.50;;;;;;;;;;5052870;28;20566;-52
2023/12/24 07:02:34;;;;;;;8.38;4.10;;;;;;;;;;5054382;28;20033;-56
2023/12/24 07:04:59;;;;;;;8.13;3.58;;;;;;;;;;5054746;28;20028;-53
2023/12/24 07:07:25;;;;;;;6.90;3.63;;;;;;;;;;5054514;28;20151;-51
2023/12/24 07:09:51;;;;;;;11.43;4.47;;;;;;;;;;5054464;28;20031;-54
2023/12/24 07:12:16;;;;;;;7.97;4.63;;;;;;;;;;5056691;28;20827;-50
2023/12/24 07:14:41;;;;;;;7.28;4.38;;;;;;;;;;5053273;28;20070;-54
2023/12/24 07:17:06;;;;;;;9.95;4.35;;;;;;;;;;5054563;28;20031;-54
2023/12/24 07:19:32;;;;;;;9.65;4.80;;;;;;;;;;5052824;28;20374;-54
2023/12/24 07:21:58;;;;;;;9.57;5.53;;;;;;;;;;5061055;28;20741;-54
2023/12/24 07:24:23;;;;;;;13.25;6.97;;;;;;;;;;5053873;28;20122;-54
2023/12/24 07:26:48;;;;;;;16.70;7.00;;;;;;;;;;5052988;28;20059;-52
2023/12/24 07:29:14;;;;;;;10.85;5.30;;;;;;;;;;5053481;28;20445;-54
2023/12/24 07:31:39;;;;;;;11.93;5.68;;;;;;;;;;5053972;28;20044;-53
2023/12/24 07:34:04;;;;;;;31.55;12.43;;;;;;;;;;5051724;28;20102;-52
2023/12/24 07:36:29;;;;;;;21.98;9.15;;;;;;;;;;5054372;28;20702;-53
2023/12/24 07:38:55;;;;;;;22.17;10.00;;;;;;;;;;5050851;28;20094;-55
2023/12/24 07:41:20;;;;;;;12.20;6.95;;;;;;;;;;5053462;28;20023;-55
2023/12/24 07:43:45;;;;;;;12.63;6.10;;;;;;;;;;5054122;28;20080;-51
2023/12/24 07:46:10;;;;;;;13.52;6.05;;;;;;;;;;5059453;28;20627;-53
2023/12/24 07:48:36;;;;;;;11.38;6.55;;;;;;;;;;5053768;28;20055;-53
2023/12/24 07:51:02;;;;;;;16.60;7.35;;;;;;;;;;5052010;28;20515;-54
2023/12/24 07:53:28;;;;;;;17.77;8.73;;;;;;;;;;5053513;28;20020;-54
2023/12/24 07:55:53;;;;;;;17.50;8.55;;;;;;;;;;5051318;28;20071;-54
2023/12/24 07:58:18;;;;;;;15.02;7.40;;;;;;;;;;5052750;28;20147;-53
2023/12/24 08:00:43;;;;;;;13.50;6.65;;;;;;;;;;5052888;28;20641;-55
2023/12/24 08:03:09;;;;;;;9.18;5.93;;;;;;;;;;5054486;28;20025;-55
2023/12/24 08:05:34;;;;;;;11.10;5.80;;;;;;;;;;5050532;28;20040;-55
2023/12/24 08:08:00;;;;;;;10.10;5.38;;;;;;;;;;5057129;28;20710;-54
2023/12/24 08:10:25;;;;;;;10.15;5.28;;;;;;;;;;5050718;28;20400;-54
2023/12/24 08:12:50;;;;;;;10.63;6.72;;;;;;;;;;5052665;28;20872;-56
2023/12/24 08:15:17;;;;;;;11.68;7.07;;;;;;;;;;5052036;28;21699;-55
2023/12/24 08:17:42;;;;;;;10.90;7.22;;;;;;;;;;5051935;28;20465;-57
2023/12/24 08:20:08;;;;;;;14.20;6.57;;;;;;;;;;5051620;28;20025;-55
2023/12/24 08:22:34;;;;;;;10.60;6.45;;;;;;;;;;5061175;28;20044;-51
2023/12/24 08:25:00;;;;;;;14.38;8.05;;;;;;;;;;5051186;28;20047;-51
2023/12/24 08:27:25;;;;;;;13.88;8.55;;;;;;;;;;5054636;28;20105;-52
2023/12/24 08:29:50;;;;;;;16.27;9.52;;;;;;;;;;5052168;28;20780;-55
2023/12/24 08:32:15;;;;;;;14.35;8.90;;;;;;;;;;5053379;28;20475;-55
2023/12/24 08:34:41;;;;;;;18.20;9.90;;;;;;;;;;5057307;28;20056;-52
2023/12/24 08:37:06;;;;;;;11.85;7.43;;;;;;;;;;5057331;28;20033;-54
2023/12/24 08:39:31;;;;;;;16.58;7.72;;;;;;;;;;5055779;28;20032;-55
2023/12/24 08:41:57;;;;;;;18.60;10.15;;;;;;;;;;5052332;28;20383;-56
2023/12/24 08:44:22;;;;;;;18.50;9.13;;;;;;;;;;5002584;28;20509;-53
2023/12/24 08:46:48;;;;;;;17.48;8.90;;;;;;;;;;5059522;28;20052;-55
2023/12/24 08:49:16;;;;;;;16.92;8.82;;;;;;;;;;5050685;28;20145;-51
2023/12/24 08:51:42;;;;;;;14.00;7.82;;;;;;;;;;5052736;28;20067;-55
2023/12/24 08:54:07;;;;;;;12.32;7.55;;;;;;;;;;5049466;28;20159;-55
2023/12/24 08:56:34;;;;;;;12.20;6.97;;;;;;;;;;5052056;28;20038;-56
2023/12/24 08:58:59;;;;;;;14.45;7.88;;;;;;;;;;5051755;28;20039;-56
2023/12/24 09:01:24;;;;;;;14.32;7.93;;;;;;;;;;5051982;28;20031;-54
2023/12/24 09:03:50;;;;;;;17.73;8.63;;;;;;;;;;5052332;28;20576;-58
2023/12/24 09:06:15;;;;;;;15.23;9.07;;;;;;;;;;5051185;28;20033;-54
2023/12/24 09:08:40;;;;;;;17.40;9.30;;;;;;;;;;5051780;28;20036;-57
2023/12/24 09:11:05;;;;;;;17.65;8.57;;;;;;;;;;5053473;28;20034;-56
2023/12/24 09:13:31;;;;;;;16.67;9.52;;;;;;;;;;5053056;28;20133;-54
2023/12/24 09:15:56;;;;;;;18.73;10.13;;;;;;;;;;5019770;28;20582;-55
2023/12/24 09:18:21;;;;;;;16.52;10.38;;;;;;;;;;5052629;28;20037;-55
2023/12/24 09:20:46;;;;;;;20.83;12.68;;;;;;;;;;5049781;28;20063;-54
2023/12/24 09:23:12;;;;;;;25.00;14.13;;;;;;;;;;5052871;28;20105;-55
2023/12/24 09:25:37;;;;;;;26.88;14.93;;;;;;;;;;5032405;28;20051;-54
2023/12/24 09:28:02;;;;;;;17.60;10.85;;;;;;;;;;5062386;28;20017;-56
2023/12/24 09:30:27;;;;;;;18.50;11.77;;;;;;;;;;5052598;28;20024;-53
2023/12/24 09:32:53;;;;;;;19.55;11.07;;;;;;;;;;5053447;28;20035;-53
2023/12/24 09:35:20;;;;;;;15.25;8.77;;;;;;;;;;5049666;28;20497;-55
2023/12/24 09:37:45;;;;;;;16.23;10.02;;;;;;;;;;5052447;28;20758;-56
2023/12/24 09:40:10;;;;;;;14.88;9.30;;;;;;;;;;5049685;28;20082;-54
2023/12/24 09:42:37;;;;;;;14.18;9.43;;;;;;;;;;5052480;28;21527;-55
2023/12/24 09:45:02;;;;;;;18.00;9.65;;;;;;;;;;5051213;28;20032;-55
2023/12/24 09:47:28;;;;;;;13.40;8.75;;;;;;;;;;5054194;28;20530;-54
2023/12/24 09:49:53;;;;;;;17.73;9.40;;;;;;;;;;5049089;28;20450;-56
2023/12/24 09:52:19;;;;;;;14.43;8.18;;;;;;;;;;5033681;28;20020;-53
2023/12/24 09:54:45;;;;;;;14.02;8.55;;;;;;;;;;5049663;28;20046;-56
2023/12/24 09:57:10;;;;;;;11.48;7.80;;;;;;;;;;5051706;28;20028;-53
2023/12/24 09:59:36;;;;;;;18.60;9.95;;;;;;;;;;5050378;28;20044;-54
2023/12/24 10:02:01;;;;;;;22.92;11.13;;;;;;;;;;5051370;28;20147;-55
2023/12/24 10:04:26;;;;;;;24.55;12.77;;;;;;;;;;5051172;28;20089;-56
2023/12/24 10:06:55;;;;;;;17.60;10.75;;;;;;;;;;5051851;28;20027;-53
2023/12/24 10:09:22;;;;;;;17.45;9.45;;;;;;;;;;5049723;28;20093;-55
2023/12/24 10:12:01;;;;;;;15.02;9.43;;;;;;;;;;5050281;28;20024;-56
2023/12/24 10:14:27;;;;;;;17.27;9.50;;;;;;;;;;5051264;28;20298;-52
2023/12/24 10:16:52;;;;;;;16.15;10.05;;;;;;;;;;5049865;28;20549;-55
2023/12/24 10:19:24;;;;;;;20.10;10.63;;;;;;;;;;5052016;28;20132;-54
2023/12/24 10:22:01;;;;;;;17.25;10.63;;;;;;;;;;5051300;28;20039;-54
2023/12/24 10:24:30;;;;;;;15.45;9.15;;;;;;;;;;5060484;28;21166;-56
2023/12/24 10:27:06;;;;;;;21.00;10.75;;;;;;;;;;5050993;28;20040;-55
2023/12/24 10:29:31;;;;;;;18.05;10.93;;;;;;;;;;5049616;28;20032;-55
2023/12/24 10:31:57;;;;;;;15.82;9.20;;;;;;;;;;5033268;28;20410;-53
2023/12/24 10:34:23;;;;;;;15.68;9.15;;;;;;;;;;5050612;28;20113;-55
2023/12/24 10:36:49;;;;;;;17.83;10.38;;;;;;;;;;5059529;28;20044;-54
2023/12/24 10:39:24;;;;;;;18.45;10.35;;;;;;;;;;5050219;28;21660;-55
2023/12/24 10:41:49;;;;;;;14.10;8.23;;;;;;;;;;5050153;28;20036;-55
2023/12/24 10:44:15;;;;;;;14.25;8.25;;;;;;;;;;5054391;28;20057;-54
2023/12/24 10:46:40;;;;;;;17.98;9.93;;;;;;;;;;5057665;28;20708;-56
2023/12/24 10:49:05;;;;;;;25.63;14.10;;;;;;;;;;5050518;28;20040;-55
2023/12/24 10:51:30;;;;;;;18.88;11.15;;;;;;;;;;5034633;28;20056;-53
2023/12/24 10:53:57;;;;;;;24.73;12.73;;;;;;;;;;5048613;28;20025;-54
2023/12/24 10:56:26;;;;;;;16.35;10.30;;;;;;;;;;5053130;28;20531;-52
2023/12/24 10:58:52;;;;;;;;;;;;;;;;;;5052789;28;20038;-55
2023/12/24 11:01:17;;;;;;;15.18;9.60;;;;;;;;;;5051510;28;19908;-50
2023/12/24 11:03:44;;;;;;;14.85;9.48;;;;;;;;;;5051921;28;20024;-55
2023/12/24 11:06:09;;;;;;;20.45;10.73;;;;;;;;;;5050507;28;20062;-55
2023/12/24 11:08:34;;;;;;;20.00;11.00;;;;;;;;;;5050423;28;22786;-56
2023/12/24 11:11:04;;;;;;;22.52;11.00;;;;;;;;;;5052879;28;20028;-56
2023/12/24 11:13:36;;;;;;;19.88;10.18;;;;;;;;;;5057488;28;20145;-56
2023/12/24 11:16:06;;;;;;;19.35;10.98;;;;;;;;;;5060624;28;20098;-55
2023/12/24 11:18:47;;;;;;;18.92;10.95;;;;;;;;;;5061294;28;20089;-56
2023/12/24 11:21:14;;;;;;;16.48;10.70;;;;;;;;;;5052949;28;20081;-56
2023/12/24 11:23:42;;;;;;;21.33;11.02;;;;;;;;;;5063804;28;20107;-55
2023/12/24 11:26:26;;;;;;;18.93;11.00;;;;;;;;;;5052310;28;20079;-51
2023/12/24 11:28:52;;;;;;;18.80;10.65;;;;;;;;;;5052647;28;20123;-57
2023/12/24 11:31:22;;;;;;;20.92;11.23;;;;;;;;;;5056201;28;20036;-55
2023/12/24 11:33:47;;;;;;;23.58;12.90;;;;;;;;;;5058265;28;20070;-55
2023/12/24 11:36:13;;;;;;;25.88;12.93;;;;;;;;;;5054243;28;20072;-52
2023/12/24 11:38:39;;;;;;;22.13;12.00;;;;;;;;;;5052760;28;20318;-53
2023/12/24 11:41:10;;;;;;;25.75;12.60;;;;;;;;;;5052264;28;20513;-55
2023/12/24 11:43:37;;;;;;;20.65;11.18;;;;;;;;;;5054269;28;20813;-56
2023/12/24 11:46:02;;;;;;;18.13;10.27;;;;;;;;;;5060083;28;20046;-55
2023/12/24 11:48:28;;;;;;;16.30;9.73;;;;;;;;;;5054943;28;20037;-56
2023/12/24 11:51:07;;;;;;;16.17;9.18;;;;;;;;;;5053637;28;20983;-54
2023/12/24 11:53:36;;;;;;;17.15;10.55;;;;;;;;;;5053644;28;20097;-53
2023/12/24 11:56:01;;;;;;;;;;;;;;;;;;5053367;28;20385;-57
2023/12/24 11:58:26;;;;;;;18.02;11.10;;;;;;;;;;5055962;28;20302;-53
2023/12/24 12:00:52;;;;;;;18.13;10.63;;;;;;;;;;5052249;28;20470;-54
2023/12/24 12:03:18;;;;;;;13.98;8.82;;;;;;;;;;5052292;28;20024;-55
2023/12/24 12:05:43;;;;;;;17.20;8.65;;;;;;;;;;5051744;28;20469;-57
2023/12/24 12:08:08;;;;;;;13.50;8.82;;;;;;;;;;5055818;28;20036;-54
2023/12/24 12:10:33;;;;;;;15.38;8.80;;;;;;;;;;5051443;28;20036;-56
2023/12/24 12:12:59;;;;;;;15.43;8.90;;;;;;;;;;5052530;28;20024;-54
2023/12/24 12:15:26;;;;;;;15.43;9.70;;;;;;;;;;5052326;28;21296;-53
2023/12/24 12:17:52;;;;;;;14.60;8.93;;;;;;;;;;5053002;28;20028;-55
2023/12/24 12:20:17;;;;;;;13.68;9.10;;;;;;;;;;5057047;28;20039;-54
2023/12/24 12:22:42;;;;;;;15.38;8.80;;;;;;;;;;5057866;28;20496;-54
2023/12/24 12:25:07;;;;;;;11.70;7.38;;;;;;;;;;5049731;28;20055;-58
2023/12/24 12:27:33;;;;;;;10.75;7.07;;;;;;;;;;5051254;28;20028;-53
2023/12/24 12:29:58;;;;;;;13.85;8.15;;;;;;;;;;5055100;28;20504;-55
2023/12/24 12:32:23;;;;;;;11.07;7.07;;;;;;;;;;5052179;28;20469;-50
2023/12/24 12:34:49;;;;;;;27.75;11.93;;;;;;;;;;5051355;28;21596;-52
2023/12/24 12:37:14;;;;;;;38.97;16.73;;;;;;;;;;5054410;28;20040;-56
2023/12/24 12:39:39;;;;;;;28.13;14.15;;;;;;;;;;5051652;28;20125;-55
2023/12/24 12:42:05;;;;;;;20.02;12.20;;;;;;;;;;5060669;28;20499;-57
2023/12/24 12:44:30;;;;;;;20.35;11.82;;;;;;;;;;5050385;28;20150;-53
2023/12/24 12:46:55;;;;;;;21.70;11.10;;;;;;;;;;5056874;28;20174;-52
2023/12/24 12:49:21;;;;;;;41.53;18.20;;;;;;;;;;5051121;28;20119;-54
2023/12/24 12:51:47;;;;;;;45.65;15.15;;;;;;;;;;5055329;28;20016;-54
2023/12/24 12:54:14;;;;;;;82.32;22.27;;;;;;;;;;5052024;28;20040;-53
2023/12/24 12:56:48;;;;;;;57.53;19.27;;;;;;;;;;5056309;28;20046;-53
2023/12/24 12:59:20;;;;;;;48.92;20.88;;;;;;;;;;5051730;28;20517;-56
2023/12/24 13:01:45;;;;;;;32.92;14.88;;;;;;;;;;5052169;28;20024;-56
2023/12/24 13:04:10;;;;;;;20.08;10.30;;;;;;;;;;5051898;28;20028;-55
2023/12/24 13:06:47;;;;;;;20.63;10.82;;;;;;;;;;5052004;28;20028;-54
2023/12/24 13:09:13;;;;;;;21.17;10.77;;;;;;;;;;5050887;28;20507;-55
2023/12/24 13:11:38;;;;;;;18.17;8.68;;;;;;;;;;5052436;28;20028;-56
2023/12/24 13:14:05;;;;;;;12.85;7.30;;;;;;;;;;5036557;28;20023;-53
2023/12/24 13:16:30;;;;;;;19.40;8.40;;;;;;;;;;5038186;28;20792;-56
2023/12/24 13:18:56;;;;;;;19.60;10.15;;;;;;;;;;5050515;28;20035;-49
2023/12/24 13:21:21;;;;;;;20.00;10.27;;;;;;;;;;5059987;28;20097;-54
2023/12/24 13:23:48;;;;;;;22.95;9.55;;;;;;;;;;5051178;28;20020;-54
2023/12/24 13:26:13;;;;;;;16.08;9.30;;;;;;;;;;5050638;28;20317;-52
2023/12/24 13:28:39;;;;;;;15.45;8.82;;;;;;;;;;5052247;28;20042;-53
2023/12/24 13:31:04;;;;;;;17.85;9.23;;;;;;;;;;5050187;28;20058;-55
2023/12/24 13:33:29;;;;;;;18.30;8.75;;;;;;;;;;5054859;28;20024;-51
2023/12/24 13:35:55;;;;;;;15.93;9.27;;;;;;;;;;5048369;28;20033;-53
2023/12/24 13:38:21;;;;;;;20.63;10.88;;;;;;;;;;5024956;28;20154;-52
2023/12/24 13:40:47;;;;;;;18.92;9.10;;;;;;;;;;5049618;28;20050;-53
2023/12/24 13:43:12;;;;;;;16.90;9.95;;;;;;;;;;5051894;28;20032;-53
2023/12/24 13:45:39;;;;;;;12.60;7.75;;;;;;;;;;5057268;28;20032;-53
2023/12/24 13:48:06;;;;;;;12.05;7.80;;;;;;;;;;5051363;28;20049;-55
2023/12/24 13:50:32;;;;;;;12.70;7.28;;;;;;;;;;5048846;28;20036;-53
2023/12/24 13:52:59;;;;;;;17.02;8.27;;;;;;;;;;5054429;28;20047;-53
2023/12/24 13:55:26;;;;;;;15.50;8.85;;;;;;;;;;5049775;28;20152;-53
2023/12/24 13:57:52;;;;;;;16.73;8.93;;;;;;;;;;5052827;28;20202;-50
2023/12/24 14:00:17;;;;;;;20.13;8.52;;;;;;;;;;5049597;28;20088;-55
2023/12/24 14:02:42;;;;;;;16.83;9.07;;;;;;;;;;5051474;28;20032;-54
2023/12/24 14:05:10;;;;;;;13.70;8.20;;;;;;;;;;5048511;28;20341;-52
2023/12/24 14:07:35;;;;;;;17.15;8.68;;;;;;;;;;5051460;28;21635;-53
2023/12/24 14:10:01;;;;;;;16.90;8.77;;;;;;;;;;5049878;28;20060;-56
2023/12/24 14:12:26;;;;;;;17.45;9.93;;;;;;;;;;5006186;28;20051;-53
2023/12/24 14:14:52;;;;;;;15.02;8.95;;;;;;;;;;5050604;28;20107;-55
2023/12/24 14:17:17;;;;;;;17.13;8.55;;;;;;;;;;5052839;28;20120;-53
2023/12/24 14:19:42;;;;;;;15.52;8.43;;;;;;;;;;5050510;28;20125;-50
2023/12/24 14:22:08;;;;;;;11.75;7.50;;;;;;;;;;5030413;28;20064;-52
2023/12/24 14:24:33;;;;;;;14.65;8.00;;;;;;;;;;5050989;28;20032;-55